Cordeiropolis, Brazil
Current Conditions -  °F | °C
As of 10:00 PM on Tuesday 25 Nov 2014 (Local Time) from SBYS Reporting Station
Light Rain Light Rain  
Wind Chill: 72°   Ceiling: 3500
Heat Index: 72°   Visibility: 6mi
Dew Point: 70°   Wind: 6mph
Humidity: 94%   Direction: 90°E
Pressure: 29.85"   Gusts: NA
Location:  22.48°S, 47.45°W
Report Text: SBYS 260000Z 09005KT 9999 -RA SCT015 BKN035 BKN100 22/21 Q1011
Loading
Personal Weather Stations






























Interactive Weather Map New forecast layout! Learn more

10-Day Weather Forecast

Advertisements
Track Severe Weather on mobile